createdAt,value
2023-02-25T00:00:53.901Z,9.747364
2023-02-25T00:02:03.486Z,9.747348
2023-02-25T00:02:55.927Z,9.747295
2023-02-25T00:03:53.879Z,9.747300
2023-02-25T00:04:53.862Z,9.747269
2023-02-25T00:05:53.854Z,9.747352
2023-02-25T00:06:53.844Z,9.747335
2023-02-25T00:07:53.865Z,9.747359
2023-02-25T00:08:53.828Z,9.747323
2023-02-25T00:09:53.818Z,9.747377
2023-02-25T00:10:53.812Z,9.747337
2023-02-25T00:11:53.805Z,9.747283
2023-02-25T00:12:53.855Z,9.747363
2023-02-25T00:13:53.809Z,9.747333
2023-02-25T00:14:53.782Z,9.747293
2023-02-25T00:15:53.786Z,9.747373
2023-02-25T00:16:53.827Z,9.747385
2023-02-25T00:17:53.789Z,9.747318
2023-02-25T00:18:53.748Z,9.747359
2023-02-25T00:19:53.747Z,9.747314
2023-02-25T00:20:53.733Z,9.747320
2023-02-25T00:21:53.732Z,9.747237
2023-02-25T00:22:53.745Z,9.747310
2023-02-25T00:23:53.825Z,9.747351
2023-02-25T00:24:53.737Z,9.747345
2023-02-25T00:25:53.699Z,9.747368
2023-02-25T00:26:53.693Z,9.747359
2023-02-25T00:27:53.717Z,9.747423
2023-02-25T00:28:53.690Z,9.747408
2023-02-25T00:29:53.668Z,9.747408
2023-02-25T00:30:53.795Z,9.747465
2023-02-25T00:31:53.787Z,9.747443
2023-02-25T00:32:53.767Z,9.747395
2023-02-25T00:33:53.656Z,9.747429
2023-02-25T00:34:53.649Z,9.747415
2023-02-25T00:35:53.625Z,9.747436
2023-02-25T00:36:53.673Z,9.747401
2023-02-25T00:37:55.652Z,9.747375
2023-02-25T00:38:53.606Z,9.747408
2023-02-25T00:39:53.604Z,9.747393
2023-02-25T00:40:53.589Z,9.747399
2023-02-25T00:41:53.580Z,9.747436
2023-02-25T00:42:53.602Z,9.747472
2023-02-25T00:43:53.561Z,9.747410
2023-02-25T00:44:53.556Z,9.747411
2023-02-25T00:45:53.611Z,9.747428
2023-02-25T00:46:53.547Z,9.747330
2023-02-25T00:47:53.569Z,9.747342
2023-02-25T00:48:53.536Z,9.747401
2023-02-25T00:49:53.544Z,9.747322
2023-02-25T00:50:53.510Z,9.747406
2023-02-25T00:51:53.503Z,9.747390
2023-02-25T00:52:53.516Z,9.747244
2023-02-25T00:53:53.500Z,9.747358
2023-02-25T00:54:53.489Z,9.747415
2023-02-25T00:55:53.460Z,9.747360
2023-02-25T00:56:54.474Z,9.747364
2023-02-25T00:57:53.480Z,9.747373
2023-02-25T00:58:54.455Z,9.747356
2023-02-25T00:59:53.448Z,9.747334
2023-02-25T01:00:53.442Z,9.747368
2023-02-25T01:01:53.481Z,9.747459
2023-02-25T01:02:53.513Z,9.747474
2023-02-25T01:03:53.416Z,9.747421
2023-02-25T01:04:53.397Z,9.747417
2023-02-25T01:05:53.390Z,9.747374
2023-02-25T01:06:53.399Z,9.747395
2023-02-25T01:07:53.405Z,9.747396
2023-02-25T01:08:53.400Z,9.747370
2023-02-25T01:09:53.364Z,9.747461
2023-02-25T01:10:53.349Z,9.747318
2023-02-25T01:11:53.357Z,9.747358
2023-02-25T01:12:53.337Z,9.747385
2023-02-25T01:13:53.442Z,9.747472
2023-02-25T01:14:53.326Z,9.747460
2023-02-25T01:15:53.327Z,9.747444
2023-02-25T01:16:53.307Z,9.747498
2023-02-25T01:17:53.310Z,9.747504
2023-02-25T01:18:53.323Z,9.747422
2023-02-25T01:19:53.288Z,9.747425
2023-02-25T01:20:53.299Z,9.747435
2023-02-25T01:21:53.275Z,9.747381
2023-02-25T01:22:53.263Z,9.747347
2023-02-25T01:23:53.288Z,9.747375
2023-02-25T01:24:53.251Z,9.747438
2023-02-25T01:25:53.247Z,9.747363
2023-02-25T01:26:53.237Z,9.747343
2023-02-25T01:27:53.222Z,9.747374
2023-02-25T01:28:53.256Z,9.747376
2023-02-25T01:29:53.209Z,9.747202
2023-02-25T01:30:53.347Z,9.747230
2023-02-25T01:31:53.383Z,9.747331
2023-02-25T01:32:53.211Z,9.747387
2023-02-25T01:33:53.201Z,9.747475
2023-02-25T01:34:53.170Z,9.747455
2023-02-25T01:35:53.173Z,9.747389
2023-02-25T01:36:53.194Z,9.747384
2023-02-25T01:37:53.156Z,9.747398
2023-02-25T01:38:53.173Z,9.747365
2023-02-25T01:39:53.131Z,9.747281
2023-02-25T01:40:54.149Z,9.747434
2023-02-25T01:41:53.140Z,9.747386
2023-02-25T01:42:53.114Z,9.747409
2023-02-25T01:43:53.129Z,9.747420
2023-02-25T01:44:53.091Z,9.747394
2023-02-25T01:45:53.086Z,9.747313
2023-02-25T01:46:53.105Z,9.747295
2023-02-25T01:47:54.079Z,9.747437
2023-02-25T01:48:53.124Z,9.747314
2023-02-25T01:49:53.064Z,9.747379
2023-02-25T01:50:53.053Z,9.747416
2023-02-25T01:51:53.044Z,9.747351
2023-02-25T01:52:53.073Z,9.747251
2023-02-25T01:53:53.082Z,9.747356
2023-02-25T01:54:53.029Z,9.747343
2023-02-25T01:55:53.023Z,9.747257
2023-02-25T01:56:53.020Z,9.747420
2023-02-25T01:57:53.003Z,9.747418
2023-02-25T01:58:53.050Z,9.747149
2023-02-25T01:59:53.012Z,9.747320
2023-02-25T02:00:53.055Z,9.747488
2023-02-25T02:01:52.979Z,9.747444
2023-02-25T02:02:53.024Z,9.747413
2023-02-25T02:03:52.981Z,9.747428
2023-02-25T02:04:52.950Z,9.747505
2023-02-25T02:05:52.936Z,9.747542
2023-02-25T02:06:52.934Z,9.747488
2023-02-25T02:07:52.936Z,9.747386
2023-02-25T02:08:52.956Z,9.747282
2023-02-25T02:09:52.902Z,9.747435
2023-02-25T02:10:52.902Z,9.747435
2023-02-25T02:11:52.896Z,9.747392
2023-02-25T02:12:52.880Z,9.747333
2023-02-25T02:13:52.877Z,9.747322
2023-02-25T02:14:52.910Z,9.747287
2023-02-25T02:15:52.884Z,9.747295
2023-02-25T02:16:52.850Z,9.747433
2023-02-25T02:17:52.899Z,9.747407
2023-02-25T02:18:52.839Z,9.747394
2023-02-25T02:19:52.852Z,9.747429
2023-02-25T02:20:52.834Z,9.747409
2023-02-25T02:21:52.816Z,9.747312
2023-02-25T02:22:52.805Z,9.747458
2023-02-25T02:23:52.801Z,9.747470
2023-02-25T02:24:52.832Z,9.747402
2023-02-25T02:25:52.790Z,9.747492
2023-02-25T02:26:52.782Z,9.747546
2023-02-25T02:27:52.780Z,9.747435
2023-02-25T02:28:52.757Z,9.747336
2023-02-25T02:29:52.777Z,9.747369
2023-02-25T02:30:52.790Z,9.747332
2023-02-25T02:31:52.849Z,9.747257
2023-02-25T02:32:52.734Z,9.747418
2023-02-25T02:33:52.732Z,9.747338
2023-02-25T02:34:52.766Z,9.747341
2023-02-25T02:35:52.717Z,9.747257
2023-02-25T02:36:52.712Z,9.747345
2023-02-25T02:37:52.692Z,9.747320
2023-02-25T02:38:52.693Z,9.747351
2023-02-25T02:39:52.711Z,9.747328
2023-02-25T02:40:52.675Z,9.747234
2023-02-25T02:41:52.670Z,9.747289
2023-02-25T02:42:52.658Z,9.747377
2023-02-25T02:43:52.692Z,9.747288
2023-02-25T02:44:52.664Z,9.747359
2023-02-25T02:45:52.682Z,9.747470
2023-02-25T02:46:52.640Z,9.747330
2023-02-25T02:47:52.617Z,9.747327
2023-02-25T02:48:52.621Z,9.747397
2023-02-25T02:49:52.637Z,9.747404
2023-02-25T02:50:52.577Z,9.747345
2023-02-25T02:51:53.604Z,9.747278
2023-02-25T02:52:52.597Z,9.747289
2023-02-25T02:53:52.572Z,9.747270
2023-02-25T02:54:52.591Z,9.747373
2023-02-25T02:55:52.568Z,9.747367
2023-02-25T02:56:52.557Z,9.747345
2023-02-25T02:57:52.588Z,9.747402
2023-02-25T02:58:52.533Z,9.747299
2023-02-25T02:59:52.564Z,9.747307
2023-02-25T03:00:52.566Z,9.747368
2023-02-25T03:01:52.538Z,9.747348
2023-02-25T03:02:52.506Z,9.747199
2023-02-25T03:03:52.548Z,9.747312
2023-02-25T03:04:52.496Z,9.747347
2023-02-25T03:05:52.509Z,9.747305
2023-02-25T03:06:52.497Z,9.747329
2023-02-25T03:07:52.482Z,9.747248
2023-02-25T03:08:52.457Z,9.747291
2023-02-25T03:09:52.445Z,9.747377
2023-02-25T03:10:52.528Z,9.747338
2023-02-25T03:11:52.447Z,9.747435
2023-02-25T03:12:52.428Z,9.747439
2023-02-25T03:13:52.439Z,9.747463
2023-02-25T03:14:52.415Z,9.747416
2023-02-25T03:15:52.453Z,9.747537
2023-02-25T03:16:52.459Z,9.747485
2023-02-25T03:17:52.382Z,9.747391
2023-02-25T03:18:52.385Z,9.747417
2023-02-25T03:19:52.384Z,9.747420
2023-02-25T03:20:52.396Z,9.747350
2023-02-25T03:21:52.385Z,9.747340
2023-02-25T03:22:52.366Z,9.747257
2023-02-25T03:23:52.352Z,9.747298
2023-02-25T03:24:52.362Z,9.747360
2023-02-25T03:25:52.366Z,9.747329
2023-02-25T03:26:52.338Z,9.747371
2023-02-25T03:27:52.326Z,9.747388
2023-02-25T03:28:52.353Z,9.747305
2023-02-25T03:29:52.318Z,9.747491
2023-02-25T03:30:52.400Z,9.747492
2023-02-25T03:31:52.387Z,9.747292
2023-02-25T03:32:52.407Z,9.747072
2023-02-25T03:33:52.282Z,9.747375
2023-02-25T03:34:52.281Z,9.747431
2023-02-25T03:35:52.306Z,9.747458
2023-02-25T03:36:52.271Z,9.747427
2023-02-25T03:37:52.258Z,9.747503
2023-02-25T03:38:52.235Z,9.747406
2023-02-25T03:39:52.245Z,9.747454
2023-02-25T03:40:52.245Z,9.747484
2023-02-25T03:41:52.221Z,9.747431
2023-02-25T03:42:52.217Z,9.747438
2023-02-25T03:43:52.202Z,9.747377
2023-02-25T03:44:52.194Z,9.747405
2023-02-25T03:45:52.228Z,9.747446
2023-02-25T03:46:52.175Z,9.747297
2023-02-25T03:47:52.177Z,9.746999
2023-02-25T03:48:52.161Z,9.746945
2023-02-25T03:49:52.156Z,9.747395
2023-02-25T03:50:52.187Z,9.747288
2023-02-25T03:51:52.149Z,9.747322
2023-02-25T03:52:52.137Z,9.747371
2023-02-25T03:53:52.131Z,9.747643
2023-02-25T03:54:52.152Z,9.747647
2023-02-25T03:55:52.137Z,9.747505
2023-02-25T03:56:52.154Z,9.747500
2023-02-25T03:57:52.091Z,9.747396
2023-02-25T03:58:52.078Z,9.747484
2023-02-25T03:59:52.084Z,9.747475
2023-02-25T04:00:52.095Z,9.747538
2023-02-25T04:01:52.053Z,9.747519
2023-02-25T04:02:52.049Z,9.747571
2023-02-25T04:03:52.047Z,9.747540
2023-02-25T04:04:52.048Z,9.747345
2023-02-25T04:05:52.063Z,9.747519
2023-02-25T04:06:52.008Z,9.747461
2023-02-25T04:07:52.015Z,9.747635
2023-02-25T04:08:52.019Z,9.747612
2023-02-25T04:09:51.994Z,9.747745
2023-02-25T04:10:51.978Z,9.747695
2023-02-25T04:11:53.006Z,9.747478
2023-02-25T04:12:51.984Z,9.747341
2023-02-25T04:13:51.959Z,9.747581
2023-02-25T04:14:51.964Z,9.747680
2023-02-25T04:15:51.996Z,9.747552
2023-02-25T04:16:52.286Z,9.747673
2023-02-25T04:17:51.936Z,9.747550
2023-02-25T04:18:51.925Z,9.747404
2023-02-25T04:19:51.919Z,9.747421
2023-02-25T04:20:51.939Z,9.747391
2023-02-25T04:21:52.337Z,9.747458
2023-02-25T04:22:51.897Z,9.747671
2023-02-25T04:23:51.901Z,9.748071
2023-02-25T04:24:51.889Z,9.747653
2023-02-25T04:25:51.871Z,9.747386
2023-02-25T04:26:51.893Z,9.747537
2023-02-25T04:27:51.870Z,9.747179
2023-02-25T04:28:51.844Z,9.747309
2023-02-25T04:29:51.847Z,9.747282
2023-02-25T04:30:51.892Z,9.747449
2023-02-25T04:31:51.938Z,9.747388
2023-02-25T04:32:52.050Z,9.747632
2023-02-25T04:33:51.837Z,9.747411
2023-02-25T04:34:51.819Z,9.747034
2023-02-25T04:35:51.803Z,9.747220
2023-02-25T04:36:51.835Z,9.747477
2023-02-25T04:37:51.801Z,9.747604
2023-02-25T04:38:51.794Z,9.747529
2023-02-25T04:39:51.830Z,9.747428
2023-02-25T04:40:51.780Z,9.747402
2023-02-25T04:41:51.816Z,9.747306
2023-02-25T04:42:51.776Z,9.747362
2023-02-25T04:43:52.749Z,9.747427
2023-02-25T04:44:51.749Z,9.747421
2023-02-25T04:45:51.734Z,9.747365
2023-02-25T04:46:52.010Z,9.747310
2023-02-25T04:47:51.716Z,9.747404
2023-02-25T04:48:51.713Z,9.747537
2023-02-25T04:49:51.704Z,9.747470
2023-02-25T04:50:52.716Z,9.747498
2023-02-25T04:51:51.715Z,9.747458
2023-02-25T04:52:51.678Z,9.747706
2023-02-25T04:53:51.674Z,9.747514
2023-02-25T04:54:51.671Z,9.747328
2023-02-25T04:55:51.669Z,9.747253
2023-02-25T04:56:51.680Z,9.747333
2023-02-25T04:57:51.669Z,9.747540
2023-02-25T04:58:51.631Z,9.747550
2023-02-25T04:59:51.623Z,9.747717
2023-02-25T05:00:51.615Z,9.747581
2023-02-25T05:01:51.686Z,9.747723
2023-02-25T05:02:51.607Z,9.747898
2023-02-25T05:03:51.601Z,9.747650
2023-02-25T05:04:51.669Z,9.747154
2023-02-25T05:05:51.585Z,9.747246
2023-02-25T05:06:51.596Z,9.747755
2023-02-25T05:07:52.568Z,9.747313
2023-02-25T05:08:51.572Z,9.747285
2023-02-25T05:09:51.562Z,9.747332
2023-02-25T05:10:51.562Z,9.747054
2023-02-25T05:11:51.566Z,9.747478
2023-02-25T05:12:51.548Z,9.747379
2023-02-25T05:13:51.542Z,9.747344
2023-02-25T05:14:51.525Z,9.747282
2023-02-25T05:15:51.595Z,9.747172
2023-02-25T05:16:51.535Z,9.747367
2023-02-25T05:17:51.515Z,9.747408
2023-02-25T05:18:51.494Z,9.747573
2023-02-25T05:19:51.484Z,9.747532
2023-02-25T05:20:51.496Z,9.747329
2023-02-25T05:21:51.501Z,9.747387
2023-02-25T05:22:51.462Z,9.747457
2023-02-25T05:23:51.458Z,9.747331
2023-02-25T05:24:51.452Z,9.747608
2023-02-25T05:25:51.441Z,9.747511
2023-02-25T05:26:51.464Z,9.747728
2023-02-25T05:27:51.484Z,9.747626
2023-02-25T05:28:51.413Z,9.747394
2023-02-25T05:29:51.438Z,9.747627
2023-02-25T05:30:51.429Z,9.747596
2023-02-25T05:31:51.580Z,9.747369
2023-02-25T05:32:51.465Z,9.747846
2023-02-25T05:33:51.378Z,9.747826
2023-02-25T05:34:51.380Z,9.747511
2023-02-25T05:35:51.385Z,9.747389
2023-02-25T05:36:51.359Z,9.747592
2023-02-25T05:37:51.374Z,9.747445
2023-02-25T05:38:51.352Z,9.747299
2023-02-25T05:39:51.338Z,9.747533
2023-02-25T05:40:51.336Z,9.747501
2023-02-25T05:41:51.513Z,9.747420
2023-02-25T05:42:51.328Z,9.747587
2023-02-25T05:43:51.311Z,9.747528
2023-02-25T05:44:51.296Z,9.747526
2023-02-25T05:45:51.297Z,9.747398
2023-02-25T05:46:51.350Z,9.747599
2023-02-25T05:47:51.306Z,9.747433
2023-02-25T05:48:51.280Z,9.747073
2023-02-25T05:49:51.254Z,9.747265
2023-02-25T05:50:51.296Z,9.747313
2023-02-25T05:51:51.237Z,9.747287
2023-02-25T05:52:51.267Z,9.747808
2023-02-25T05:53:51.225Z,9.747383
2023-02-25T05:54:51.227Z,9.747217
2023-02-25T05:55:51.216Z,9.747731
2023-02-25T05:56:51.232Z,9.747860
2023-02-25T05:57:51.230Z,9.747774
2023-02-25T05:58:51.181Z,9.747659
2023-02-25T05:59:51.184Z,9.747293
2023-02-25T06:00:51.182Z,9.747170
2023-02-25T06:01:51.243Z,9.747320
2023-02-25T06:02:51.242Z,9.747342
2023-02-25T06:03:51.148Z,9.747559
2023-02-25T06:04:51.143Z,9.747624
2023-02-25T06:05:51.146Z,9.747924
2023-02-25T06:06:51.127Z,9.747532
2023-02-25T06:07:51.139Z,9.747645
2023-02-25T06:08:51.118Z,9.747438
2023-02-25T06:09:51.123Z,9.748022
2023-02-25T06:10:51.092Z,9.747648
2023-02-25T06:11:51.100Z,9.747524
2023-02-25T06:12:51.116Z,9.747749
2023-02-25T06:13:51.073Z,9.747743
2023-02-25T06:14:51.082Z,9.747841
2023-02-25T06:15:51.060Z,9.747613
2023-02-25T06:16:51.148Z,9.747820
2023-02-25T06:17:51.081Z,9.747450
2023-02-25T06:18:51.044Z,9.747626
2023-02-25T06:19:51.030Z,9.747375
2023-02-25T06:20:51.024Z,9.747689
2023-02-25T06:21:51.023Z,9.747566
2023-02-25T06:22:51.033Z,9.747358
2023-02-25T06:23:51.009Z,9.747541
2023-02-25T06:24:51.999Z,9.747426
2023-02-25T06:25:50.984Z,9.747393
2023-02-25T06:26:50.985Z,9.747449
2023-02-25T06:27:51.010Z,9.747622
2023-02-25T06:28:50.990Z,9.747574
2023-02-25T06:29:50.971Z,9.747499
2023-02-25T06:30:50.982Z,9.747607
2023-02-25T06:31:51.050Z,9.747538
2023-02-25T06:32:51.042Z,9.747561
2023-02-25T06:33:51.934Z,9.747838
2023-02-25T06:34:50.926Z,9.747569
2023-02-25T06:35:50.913Z,9.747611
2023-02-25T06:36:50.899Z,9.747611
2023-02-25T06:37:50.905Z,9.747527
2023-02-25T06:38:50.923Z,9.747602
2023-02-25T06:39:50.880Z,9.747705
2023-02-25T06:40:50.880Z,9.747592
2023-02-25T06:41:50.877Z,9.747517
2023-02-25T06:42:50.870Z,9.747512
2023-02-25T06:43:50.891Z,9.747524
2023-02-25T06:44:50.868Z,9.747688
2023-02-25T06:45:50.924Z,9.747627
2023-02-25T06:46:50.832Z,9.747630
2023-02-25T06:47:50.832Z,9.747749
2023-02-25T06:48:50.862Z,9.747615
2023-02-25T06:49:50.818Z,9.747581
2023-02-25T06:50:50.812Z,9.747442
2023-02-25T06:51:50.795Z,9.747530
2023-02-25T06:52:50.794Z,9.747462
2023-02-25T06:53:50.804Z,9.747445
2023-02-25T06:54:50.773Z,9.747563
2023-02-25T06:55:50.781Z,9.747637
2023-02-25T06:56:50.760Z,9.747639
2023-02-25T06:57:51.401Z,9.747695
2023-02-25T06:58:50.802Z,9.747566
2023-02-25T06:59:50.729Z,9.747613
2023-02-25T07:00:50.828Z,9.747633
2023-02-25T07:01:50.821Z,9.747739
2023-02-25T07:02:50.705Z,9.747598
2023-02-25T07:03:50.758Z,9.747562
2023-02-25T07:04:50.786Z,9.747450
2023-02-25T07:05:50.694Z,9.747554
2023-02-25T07:06:50.674Z,9.747589
2023-02-25T07:07:50.808Z,9.747508
2023-02-25T07:08:50.792Z,9.747405
2023-02-25T07:09:50.700Z,9.747375
2023-02-25T07:10:50.657Z,9.747479
2023-02-25T07:11:50.827Z,9.747500
2023-02-25T07:12:50.659Z,9.747602
2023-02-25T07:13:50.657Z,9.747528
2023-02-25T07:14:50.630Z,9.747627
2023-02-25T07:15:51.967Z,9.747575
2023-02-25T07:16:51.215Z,9.747507
2023-02-25T07:17:50.601Z,9.747590
2023-02-25T07:18:50.611Z,9.747540
2023-02-25T07:19:50.595Z,9.747468
2023-02-25T07:20:50.588Z,9.747489
2023-02-25T07:21:50.576Z,9.747570
2023-02-25T07:22:50.565Z,9.747554
2023-02-25T07:23:50.590Z,9.747518
2023-02-25T07:24:50.609Z,9.747377
2023-02-25T07:25:50.540Z,9.747441
2023-02-25T07:26:50.538Z,9.747381
2023-02-25T07:27:50.535Z,9.747415
2023-02-25T07:28:50.573Z,9.747472
2023-02-25T07:29:50.515Z,9.747548
2023-02-25T07:30:50.565Z,9.747390
2023-02-25T07:31:50.665Z,9.747455
2023-02-25T07:32:50.509Z,9.747555
2023-02-25T07:33:50.529Z,9.747508
2023-02-25T07:34:50.478Z,9.747500
2023-02-25T07:35:50.469Z,9.747486
2023-02-25T07:36:50.460Z,9.747461
2023-02-25T07:37:50.445Z,9.747628
2023-02-25T07:38:50.472Z,9.747559
2023-02-25T07:39:50.440Z,9.747510
2023-02-25T07:40:50.419Z,9.747549
2023-02-25T07:41:50.421Z,9.747555
2023-02-25T07:42:50.403Z,9.747631
2023-02-25T07:43:50.434Z,9.747439
2023-02-25T07:44:50.409Z,9.747504
2023-02-25T07:45:50.425Z,9.747569
2023-02-25T07:46:50.381Z,9.747480
2023-02-25T07:47:50.384Z,9.747449
2023-02-25T07:48:50.405Z,9.747442
2023-02-25T07:49:50.365Z,9.747451
2023-02-25T07:50:50.358Z,9.747537
2023-02-25T07:51:50.344Z,9.747494
2023-02-25T07:52:50.367Z,9.747397
2023-02-25T07:53:50.380Z,9.747449
2023-02-25T07:54:50.328Z,9.747486
2023-02-25T07:55:50.342Z,9.747507
2023-02-25T07:56:50.331Z,9.747424
2023-02-25T07:57:50.301Z,9.747492
2023-02-25T07:58:50.315Z,9.747457
2023-02-25T07:59:50.291Z,9.747600
2023-02-25T08:00:50.288Z,9.747546
2023-02-25T08:01:50.301Z,9.747530
2023-02-25T08:02:50.296Z,9.747606
2023-02-25T08:03:50.305Z,9.747500
2023-02-25T08:04:50.383Z,9.747421
2023-02-25T08:05:50.260Z,9.747511
2023-02-25T08:06:50.233Z,9.747540
2023-02-25T08:07:50.223Z,9.747415
2023-02-25T08:08:50.243Z,9.747363
2023-02-25T08:09:50.206Z,9.747480
2023-02-25T08:10:50.206Z,9.747362
2023-02-25T08:11:50.203Z,9.747448
2023-02-25T08:12:50.194Z,9.747457
2023-02-25T08:13:50.210Z,9.747444
2023-02-25T08:14:50.184Z,9.747485
2023-02-25T08:15:50.247Z,9.747469
2023-02-25T08:16:50.163Z,9.747522
2023-02-25T08:17:50.191Z,9.747452
2023-02-25T08:18:50.198Z,9.747442
2023-02-25T08:19:50.157Z,9.747315
2023-02-25T08:20:50.136Z,9.747359
2023-02-25T08:21:50.115Z,9.747426
2023-02-25T08:22:50.139Z,9.747495
2023-02-25T08:23:50.135Z,9.747489
2023-02-25T08:24:50.150Z,9.747460
2023-02-25T08:25:50.089Z,9.747518
2023-02-25T08:26:50.112Z,9.747513
2023-02-25T08:27:50.077Z,9.747627
2023-02-25T08:28:50.096Z,9.747604
2023-02-25T08:29:50.068Z,9.747497
2023-02-25T08:30:50.101Z,9.747513
2023-02-25T08:31:50.295Z,9.747497
2023-02-25T08:32:50.119Z,9.747529
2023-02-25T08:33:50.065Z,9.747554
2023-02-25T08:34:50.028Z,9.747620
2023-02-25T08:35:50.022Z,9.747518
2023-02-25T08:36:50.014Z,9.747451
2023-02-25T08:37:50.026Z,9.747359
2023-02-25T08:38:50.047Z,9.747559
2023-02-25T08:39:49.987Z,9.747527
2023-02-25T08:40:50.017Z,9.747519
2023-02-25T08:41:49.994Z,9.747519
2023-02-25T08:42:50.170Z,9.747558
2023-02-25T08:43:49.999Z,9.747533
2023-02-25T08:44:49.948Z,9.747412
2023-02-25T08:45:49.935Z,9.747393
2023-02-25T08:46:50.117Z,9.747602
2023-02-25T08:47:49.924Z,9.747478
2023-02-25T08:48:49.953Z,9.747491
2023-02-25T08:49:49.904Z,9.747531
2023-02-25T08:50:49.910Z,9.747598
2023-02-25T08:51:49.918Z,9.747649
2023-02-25T08:52:49.899Z,9.747566
2023-02-25T08:53:49.919Z,9.747529
2023-02-25T08:54:49.873Z,9.747443
2023-02-25T08:55:49.864Z,9.747554
2023-02-25T08:56:49.855Z,9.747400
2023-02-25T08:57:49.851Z,9.747514
2023-02-25T08:58:49.872Z,9.747481
2023-02-25T08:59:49.834Z,9.747383
2023-02-25T09:00:49.877Z,9.747521
2023-02-25T09:01:49.825Z,9.747404
2023-02-25T09:02:49.813Z,9.747303
2023-02-25T09:03:49.795Z,9.747377
2023-02-25T09:04:49.910Z,9.747445
2023-02-25T09:05:49.795Z,9.747423
2023-02-25T09:06:49.783Z,9.747326
2023-02-25T09:07:49.760Z,9.747379
2023-02-25T09:08:49.751Z,9.747279
2023-02-25T09:09:49.791Z,9.747302
2023-02-25T09:10:51.032Z,9.747422
2023-02-25T09:11:50.732Z,9.747445
2023-02-25T09:12:49.747Z,9.747344
2023-02-25T09:13:49.722Z,9.747408
2023-02-25T09:14:49.741Z,9.747325
2023-02-25T09:15:49.717Z,9.747379
2023-02-25T09:16:49.842Z,9.747372
2023-02-25T09:17:49.694Z,9.747361
2023-02-25T09:18:49.693Z,9.747425
2023-02-25T09:19:49.697Z,9.747297
2023-02-25T09:20:49.752Z,9.747317
2023-02-25T09:21:49.650Z,9.747217
2023-02-25T09:22:50.659Z,9.747305
2023-02-25T09:23:49.646Z,9.747389
2023-02-25T09:24:49.660Z,9.747432
2023-02-25T09:25:49.646Z,9.747367
2023-02-25T09:26:49.639Z,9.747468
2023-02-25T09:27:49.626Z,9.747455
2023-02-25T09:28:49.635Z,9.747450
2023-02-25T09:29:49.638Z,9.747450
2023-02-25T09:30:49.625Z,9.747509
2023-02-25T09:31:49.838Z,9.747416
2023-02-25T09:32:49.735Z,9.747383
2023-02-25T09:33:49.580Z,9.747324
2023-02-25T09:34:49.608Z,9.747305
2023-02-25T09:35:49.556Z,9.747390
2023-02-25T09:36:49.547Z,9.747375
2023-02-25T09:37:49.551Z,9.747270
2023-02-25T09:38:49.540Z,9.747467
2023-02-25T09:39:49.558Z,9.747398
2023-02-25T09:40:49.571Z,9.747292
2023-02-25T09:41:49.523Z,9.747174
2023-02-25T09:42:49.510Z,9.747359
2023-02-25T09:43:49.495Z,9.747223
2023-02-25T09:44:49.523Z,9.747190
2023-02-25T09:45:49.684Z,9.747202
2023-02-25T09:46:49.481Z,9.747283
2023-02-25T09:47:49.526Z,9.747300
2023-02-25T09:48:49.479Z,9.747094
2023-02-25T09:49:49.485Z,9.747252
2023-02-25T09:50:49.454Z,9.747173
2023-02-25T09:51:49.442Z,9.747224
2023-02-25T09:52:49.443Z,9.747256
2023-02-25T09:53:49.534Z,9.747281
2023-02-25T09:54:49.468Z,9.747216
2023-02-25T09:55:49.424Z,9.747272
2023-02-25T09:56:49.410Z,9.747253
2023-02-25T09:57:49.431Z,9.747317
2023-02-25T09:58:49.380Z,9.747136
2023-02-25T09:59:50.452Z,9.747351
2023-02-25T10:00:49.383Z,9.747228
2023-02-25T10:01:49.407Z,9.747104
2023-02-25T10:02:49.486Z,9.747118
2023-02-25T10:03:49.357Z,9.747136
2023-02-25T10:04:49.383Z,9.747175
2023-02-25T10:05:49.343Z,9.747179
2023-02-25T10:06:49.343Z,9.747241
2023-02-25T10:07:49.324Z,9.747265
2023-02-25T10:08:49.320Z,9.747028
2023-02-25T10:09:49.338Z,9.747292
2023-02-25T10:10:49.295Z,9.747318
2023-02-25T10:11:49.286Z,9.747326
2023-02-25T10:12:49.303Z,9.747523
2023-02-25T10:13:49.276Z,9.747473
2023-02-25T10:14:49.302Z,9.747425
2023-02-25T10:15:52.785Z,9.747556
2023-02-25T10:16:50.285Z,9.747501
2023-02-25T10:17:49.237Z,9.747484
2023-02-25T10:18:49.243Z,9.747365
2023-02-25T10:19:49.254Z,9.747472
2023-02-25T10:20:49.224Z,9.747441
2023-02-25T10:21:49.249Z,9.747479
2023-02-25T10:22:49.203Z,9.747501
2023-02-25T10:23:49.205Z,9.747499
2023-02-25T10:24:49.246Z,9.747577
2023-02-25T10:25:49.178Z,9.747566
2023-02-25T10:26:49.173Z,9.747564
2023-02-25T10:27:49.172Z,9.747409
2023-02-25T10:28:49.159Z,9.747322
2023-02-25T10:29:49.196Z,9.747336
2023-02-25T10:30:49.207Z,9.747523
2023-02-25T10:31:49.251Z,9.747449
2023-02-25T10:32:49.242Z,9.747536
2023-02-25T10:33:49.123Z,9.747313
2023-02-25T10:34:49.153Z,9.747240
2023-02-25T10:35:49.103Z,9.747387
2023-02-25T10:36:49.092Z,9.747389
2023-02-25T10:37:49.095Z,9.747357
2023-02-25T10:38:49.075Z,9.747422
2023-02-25T10:39:49.077Z,9.747467
2023-02-25T10:40:49.117Z,9.747485
2023-02-25T10:41:49.108Z,9.747480
2023-02-25T10:42:50.077Z,9.747474
2023-02-25T10:43:49.079Z,9.747545
2023-02-25T10:44:49.092Z,9.747587
2023-02-25T10:45:49.090Z,9.747600
2023-02-25T10:46:49.020Z,9.747475
2023-02-25T10:47:49.020Z,9.747494
2023-02-25T10:48:49.008Z,9.747439
2023-02-25T10:49:48.992Z,9.747488
2023-02-25T10:50:49.129Z,9.747418
2023-02-25T10:51:48.986Z,9.747546
2023-02-25T10:52:48.974Z,9.747530
2023-02-25T10:53:48.967Z,9.747519
2023-02-25T10:54:49.014Z,9.747596
2023-02-25T10:55:48.978Z,9.747534
2023-02-25T10:56:48.935Z,9.747553
2023-02-25T10:57:48.937Z,9.747511
2023-02-25T10:58:48.924Z,9.747463
2023-02-25T10:59:48.915Z,9.747490
2023-02-25T11:00:48.938Z,9.747472
2023-02-25T11:01:48.979Z,9.747440
2023-02-25T11:02:48.927Z,9.747561
2023-02-25T11:03:48.899Z,9.747519
2023-02-25T11:04:48.882Z,9.747454
2023-02-25T11:05:48.891Z,9.747462
2023-02-25T11:06:48.869Z,9.747513
2023-02-25T11:07:48.878Z,9.747416
2023-02-25T11:08:48.856Z,9.747462
2023-02-25T11:09:48.868Z,9.747405
2023-02-25T11:10:48.863Z,9.747465
2023-02-25T11:11:48.828Z,9.747392
2023-02-25T11:12:48.823Z,9.747457
2023-02-25T11:13:48.806Z,9.747441
2023-02-25T11:14:49.573Z,9.747493
2023-02-25T11:15:48.944Z,9.747355
2023-02-25T11:16:48.796Z,9.747474
2023-02-25T11:17:48.793Z,9.747384
2023-02-25T11:18:48.779Z,9.747491
2023-02-25T11:19:48.798Z,9.747348
2023-02-25T11:20:48.789Z,9.747408
2023-02-25T11:21:49.759Z,9.747485
2023-02-25T11:22:48.758Z,9.747526
2023-02-25T11:23:48.743Z,9.747562
2023-02-25T11:24:48.735Z,9.747518
2023-02-25T11:25:48.782Z,9.747655
2023-02-25T11:26:48.758Z,9.747580
2023-02-25T11:27:48.704Z,9.747524
2023-02-25T11:28:48.716Z,9.747415
2023-02-25T11:29:48.703Z,9.747512
2023-02-25T11:30:48.805Z,9.747472
2023-02-25T11:31:49.093Z,9.747503
2023-02-25T11:32:48.729Z,9.747515
2023-02-25T11:33:48.663Z,9.747474
2023-02-25T11:34:48.683Z,9.747580
2023-02-25T11:35:48.644Z,9.747536
2023-02-25T11:36:50.877Z,9.747568
2023-02-25T11:37:48.630Z,9.747614
2023-02-25T11:38:48.646Z,9.747524
2023-02-25T11:39:48.648Z,9.747499
2023-02-25T11:40:48.611Z,9.747448
2023-02-25T11:41:48.636Z,9.747613
2023-02-25T11:42:48.602Z,9.747641
2023-02-25T11:43:48.602Z,9.747703
2023-02-25T11:44:48.591Z,9.747773